createdAt,value
2023-04-07T00:00:55.775Z,3.42
2023-04-07T00:03:23.828Z,3.38
2023-04-07T00:05:51.324Z,3.35
2023-04-07T00:08:18.509Z,3.35
2023-04-07T00:10:45.877Z,3.35
2023-04-07T00:13:12.864Z,3.37
2023-04-07T00:15:40.219Z,3.38
2023-04-07T00:18:07.294Z,3.39
2023-04-07T00:20:34.587Z,3.42
2023-04-07T00:23:01.543Z,3.45
2023-04-07T00:25:28.876Z,3.45
2023-04-07T00:27:55.853Z,3.48
2023-04-07T00:30:23.113Z,3.48
2023-04-07T00:32:51.819Z,3.49
2023-04-07T00:35:19.268Z,3.51
2023-04-07T00:37:46.213Z,3.53
2023-04-07T00:40:13.634Z,3.55
2023-04-07T00:42:40.776Z,3.58
2023-04-07T00:45:10.235Z,3.58
2023-04-07T00:47:37.443Z,3.61
2023-04-07T00:50:05.522Z,3.60
2023-04-07T00:52:34.013Z,3.56
2023-04-07T00:55:01.416Z,3.53
2023-04-07T00:57:28.419Z,3.50
2023-04-07T00:59:56.532Z,3.46
2023-04-07T01:02:41.634Z,3.44
2023-04-07T01:05:16.591Z,3.43
2023-04-07T01:08:15.868Z,3.43
2023-04-07T01:10:56.848Z,3.44
2023-04-07T01:13:31.479Z,3.46
2023-04-07T01:16:04.513Z,3.49
2023-04-07T01:18:37.092Z,3.53
2023-04-07T01:21:14.214Z,3.53
2023-04-07T01:24:09.084Z,3.54
2023-04-07T01:26:37.794Z,3.55
2023-04-07T01:29:44.871Z,3.54
2023-04-07T01:32:13.039Z,3.59
2023-04-07T01:34:42.058Z,3.61
2023-04-07T01:37:10.873Z,3.62
2023-04-07T01:39:39.755Z,3.65
2023-04-07T01:42:07.843Z,3.65
2023-04-07T01:44:35.831Z,3.65
2023-04-07T01:47:04.025Z,3.66
2023-04-07T01:49:32.218Z,3.69
2023-04-07T01:52:00.487Z,3.68
2023-04-07T01:54:28.442Z,3.69
2023-04-07T01:56:56.773Z,3.68
2023-04-07T01:59:23.793Z,3.68
2023-04-07T02:01:51.511Z,3.68
2023-04-07T02:05:05.562Z,3.69
2023-04-07T02:07:42.734Z,3.71
2023-04-07T02:10:12.950Z,3.71
2023-04-07T02:12:42.081Z,3.75
2023-04-07T02:15:30.992Z,3.76
2023-04-07T02:18:00.619Z,3.73
2023-04-07T02:20:28.864Z,3.72
2023-04-07T02:22:56.520Z,3.73
2023-04-07T02:25:27.724Z,3.74
2023-04-07T02:27:56.611Z,3.75
2023-04-07T02:30:24.163Z,3.79
2023-04-07T02:32:52.109Z,3.81
2023-04-07T02:35:19.343Z,3.77
2023-04-07T02:37:49.603Z,3.80
2023-04-07T02:40:16.783Z,3.82
2023-04-07T02:42:44.348Z,3.86
2023-04-07T02:45:11.887Z,3.87
2023-04-07T02:47:40.183Z,3.89
2023-04-07T02:50:07.894Z,3.91
2023-04-07T02:52:35.437Z,3.92
2023-04-07T02:55:02.787Z,3.94
2023-04-07T02:57:30.158Z,3.98
2023-04-07T02:59:58.251Z,4.00
2023-04-07T03:02:25.975Z,4.01
2023-04-07T03:04:53.377Z,4.02
2023-04-07T03:07:20.791Z,4.01
2023-04-07T03:09:48.843Z,4.02
2023-04-07T03:12:16.421Z,4.05
2023-04-07T03:14:43.399Z,4.06
2023-04-07T03:17:11.084Z,4.08
2023-04-07T03:19:38.097Z,4.07
2023-04-07T03:22:05.536Z,4.09
2023-04-07T03:24:32.512Z,4.11
2023-04-07T03:26:59.998Z,4.13
2023-04-07T03:29:26.929Z,4.16
2023-04-07T03:31:54.262Z,4.16
2023-04-07T03:34:21.262Z,4.16
2023-04-07T03:36:48.673Z,4.18
2023-04-07T03:39:16.052Z,4.16
2023-04-07T03:41:43.647Z,4.20
2023-04-07T03:44:10.996Z,4.18
2023-04-07T03:46:38.501Z,4.21
2023-04-07T03:49:05.601Z,4.23
2023-04-07T03:51:34.238Z,4.23
2023-04-07T03:54:01.483Z,4.26
2023-04-07T03:56:29.062Z,4.31
2023-04-07T03:58:56.421Z,4.34
2023-04-07T04:01:24.296Z,4.38
2023-04-07T04:03:52.097Z,4.41
2023-04-07T04:06:21.308Z,4.45
2023-04-07T04:08:48.394Z,4.47
2023-04-07T04:11:16.415Z,4.51
2023-04-07T04:13:43.403Z,4.52
2023-04-07T04:16:14.491Z,4.58
2023-04-07T04:18:43.072Z,4.60
2023-04-07T04:21:12.180Z,4.60
2023-04-07T04:23:39.197Z,4.64
2023-04-07T04:26:08.210Z,4.70
2023-04-07T04:28:35.135Z,4.71
2023-04-07T04:31:05.186Z,4.71
2023-04-07T04:33:32.435Z,4.71
2023-04-07T04:36:00.200Z,4.77
2023-04-07T04:38:27.180Z,4.81
2023-04-07T04:40:55.836Z,4.84
2023-04-07T04:43:23.021Z,4.86
2023-04-07T04:45:51.819Z,4.89
2023-04-07T04:48:19.132Z,4.89
2023-04-07T04:50:56.135Z,4.94
2023-04-07T04:53:23.186Z,4.97
2023-04-07T04:55:52.369Z,4.99
2023-04-07T04:58:21.890Z,5.02
2023-04-07T05:00:50.056Z,5.01
2023-04-07T05:03:18.231Z,5.02
2023-04-07T05:05:48.897Z,5.05
2023-04-07T05:08:16.923Z,5.05
2023-04-07T05:10:45.659Z,5.08
2023-04-07T05:13:16.490Z,5.12
2023-04-07T05:15:45.070Z,5.17
2023-04-07T05:18:12.610Z,5.17
2023-04-07T05:20:40.708Z,5.22
2023-04-07T05:23:08.041Z,5.22
2023-04-07T05:25:38.422Z,5.22
2023-04-07T05:28:06.956Z,5.20
2023-04-07T05:30:35.587Z,5.18
2023-04-07T05:33:02.692Z,5.18
2023-04-07T05:35:30.332Z,5.25
2023-04-07T05:37:57.520Z,5.27
2023-04-07T05:40:27.850Z,5.32
2023-04-07T05:42:54.861Z,5.35
2023-04-07T05:45:24.677Z,5.38
2023-04-07T05:47:52.107Z,5.41
2023-04-07T05:50:21.092Z,5.45
2023-04-07T05:52:48.034Z,5.54
2023-04-07T05:55:15.628Z,5.66
2023-04-07T05:57:43.307Z,5.76
2023-04-07T06:00:11.924Z,5.84
2023-04-07T06:02:40.430Z,5.89
2023-04-07T06:05:08.211Z,5.94
2023-04-07T06:07:35.244Z,5.97
2023-04-07T06:10:06.184Z,6.04
2023-04-07T06:12:33.464Z,6.13
2023-04-07T06:15:01.920Z,6.23
2023-04-07T06:17:29.174Z,6.31
2023-04-07T06:19:57.644Z,6.33
2023-04-07T06:22:24.685Z,6.35
2023-04-07T06:24:54.941Z,6.39
2023-04-07T06:27:23.453Z,6.41
2023-04-07T06:29:51.072Z,6.43
2023-04-07T06:32:19.038Z,6.46
2023-04-07T06:34:46.526Z,6.43
2023-04-07T06:37:15.751Z,6.45
2023-04-07T06:39:43.288Z,6.44
2023-04-07T06:42:10.429Z,6.42
2023-04-07T06:44:37.847Z,6.40
2023-04-07T06:47:04.936Z,6.42
2023-04-07T06:49:33.842Z,6.44
2023-04-07T06:52:02.853Z,6.44
2023-04-07T06:54:30.157Z,6.44
2023-04-07T06:56:57.354Z,6.44
2023-04-07T06:59:24.649Z,6.43
2023-04-07T07:01:52.706Z,6.47
2023-04-07T07:04:21.368Z,6.51
2023-04-07T07:06:51.565Z,6.54
2023-04-07T07:09:28.550Z,6.58
2023-04-07T07:11:56.961Z,6.62
2023-04-07T07:14:24.489Z,6.65
2023-04-07T07:16:51.710Z,6.67
2023-04-07T07:19:20.405Z,6.69
2023-04-07T07:21:47.718Z,6.67
2023-04-07T07:24:15.480Z,6.67
2023-04-07T07:26:44.185Z,6.66
2023-04-07T07:29:11.993Z,6.63
2023-04-07T07:31:39.097Z,6.64
2023-04-07T07:34:08.257Z,6.67
2023-04-07T07:36:35.266Z,6.75
2023-04-07T07:39:05.926Z,6.77
2023-04-07T07:41:34.792Z,6.84
2023-04-07T07:44:05.293Z,6.87
2023-04-07T07:46:42.610Z,6.89
2023-04-07T07:49:10.920Z,6.92
2023-04-07T07:51:38.323Z,6.97
2023-04-07T07:54:06.292Z,7.09
2023-04-07T07:56:33.360Z,7.21
2023-04-07T07:59:01.009Z,7.28
2023-04-07T08:01:28.151Z,7.31
2023-04-07T08:03:57.379Z,7.33
2023-04-07T08:06:24.541Z,7.43
2023-04-07T08:09:20.138Z,7.50
2023-04-07T08:11:51.356Z,7.51
2023-04-07T08:14:20.005Z,7.53
2023-04-07T08:16:50.353Z,7.44
2023-04-07T08:19:17.849Z,7.41
2023-04-07T08:21:49.384Z,7.38
2023-04-07T08:24:16.805Z,7.45
2023-04-07T08:26:45.657Z,7.51
2023-04-07T08:29:13.060Z,7.72
2023-04-07T08:31:45.210Z,7.94
2023-04-07T08:34:13.879Z,8.29
2023-04-07T08:36:42.940Z,8.49
2023-04-07T08:39:12.789Z,8.60
2023-04-07T08:41:42.502Z,8.70
2023-04-07T08:44:10.652Z,8.80
2023-04-07T08:46:42.468Z,8.96
2023-04-07T08:49:14.047Z,9.13
2023-04-07T08:51:49.565Z,9.26
2023-04-07T08:54:19.246Z,9.43
2023-04-07T08:56:48.452Z,9.66
2023-04-07T08:59:37.392Z,9.76
2023-04-07T09:02:05.586Z,9.81
2023-04-07T09:04:33.355Z,9.86
2023-04-07T09:07:02.240Z,9.92
2023-04-07T09:09:29.905Z,9.94
2023-04-07T09:11:56.930Z,9.90
2023-04-07T09:14:24.258Z,9.86
2023-04-07T09:16:51.325Z,9.93
2023-04-07T09:19:18.863Z,10.00
2023-04-07T09:21:51.391Z,10.09
2023-04-07T09:24:27.036Z,10.11
2023-04-07T09:27:16.957Z,10.04
2023-04-07T09:29:46.826Z,10.01
2023-04-07T09:32:36.284Z,10.14
2023-04-07T09:35:03.894Z,10.34
2023-04-07T09:37:31.222Z,10.53
2023-04-07T09:39:59.190Z,10.68
2023-04-07T09:42:26.812Z,10.71
2023-04-07T09:44:56.720Z,10.76
2023-04-07T09:47:32.203Z,10.72
2023-04-07T09:50:07.116Z,10.50
2023-04-07T09:52:52.617Z,10.33
2023-04-07T09:55:24.310Z,10.35
2023-04-07T09:57:53.683Z,10.34
2023-04-07T10:00:21.234Z,10.38
2023-04-07T10:02:49.582Z,10.33
2023-04-07T10:05:19.106Z,10.21
2023-04-07T10:08:00.930Z,10.09
2023-04-07T10:10:33.270Z,10.03
2023-04-07T10:15:59.814Z,9.78
2023-04-07T10:18:33.073Z,9.60
2023-04-07T10:21:08.197Z,9.39
2023-04-07T10:23:45.091Z,9.22
2023-04-07T10:26:18.191Z,9.01
2023-04-07T10:28:54.374Z,8.90
2023-04-07T10:31:25.112Z,8.80
2023-04-07T10:33:53.596Z,8.84
2023-04-07T10:36:22.191Z,9.10
2023-04-07T10:39:07.468Z,9.51
2023-04-07T10:41:41.546Z,9.97
2023-04-07T10:44:44.073Z,10.28
2023-04-07T10:47:12.829Z,10.75
2023-04-07T10:49:40.202Z,11.36
2023-04-07T10:52:13.620Z,11.51
2023-04-07T10:54:41.603Z,11.49
2023-04-07T10:57:12.238Z,12.09
2023-04-07T11:00:00.358Z,12.83
2023-04-07T11:02:27.809Z,12.42
2023-04-07T11:04:55.589Z,12.11
2023-04-07T11:07:43.659Z,12.01
2023-04-07T11:10:13.066Z,12.38
2023-04-07T11:12:40.499Z,12.80
2023-04-07T11:15:22.141Z,13.06
2023-04-07T11:18:19.173Z,12.68
2023-04-07T11:20:53.607Z,12.30
2023-04-07T11:23:27.271Z,11.90
2023-04-07T11:26:02.119Z,11.68
2023-04-07T11:28:31.060Z,11.51
2023-04-07T11:31:00.328Z,11.28
2023-04-07T11:33:30.942Z,11.11
2023-04-07T11:36:01.078Z,10.97
2023-04-07T11:38:30.765Z,10.81
2023-04-07T11:40:57.828Z,10.69
2023-04-07T11:43:27.985Z,10.60
2023-04-07T11:46:09.788Z,10.48
2023-04-07T11:48:39.486Z,10.44
2023-04-07T11:51:15.155Z,10.48
2023-04-07T11:53:42.599Z,10.46
2023-04-07T11:56:18.723Z,10.43
2023-04-07T11:58:50.002Z,10.36
2023-04-07T12:01:17.359Z,10.32
2023-04-07T12:04:00.124Z,10.33
2023-04-07T12:06:35.401Z,10.30
2023-04-07T12:09:03.850Z,10.26
2023-04-07T12:11:35.232Z,10.24
2023-04-07T12:14:05.467Z,10.21
2023-04-07T12:16:32.438Z,10.12
2023-04-07T12:19:00.266Z,10.03
2023-04-07T12:21:27.736Z,9.95
2023-04-07T12:23:55.162Z,9.91
2023-04-07T12:26:23.310Z,9.81
2023-04-07T12:28:50.933Z,9.73
2023-04-07T12:31:21.526Z,9.57
2023-04-07T12:33:51.127Z,9.33
2023-04-07T12:39:02.619Z,8.92
2023-04-07T12:41:30.069Z,8.76
2023-04-07T12:43:58.765Z,8.65
2023-04-07T12:46:27.713Z,8.49
2023-04-07T12:48:55.501Z,8.41
2023-04-07T12:51:23.188Z,8.25
2023-04-07T12:53:51.058Z,8.12
2023-04-07T12:56:23.640Z,8.04
2023-04-07T12:58:50.989Z,7.97
2023-04-07T13:01:18.092Z,7.97
2023-04-07T13:03:45.936Z,7.98
2023-04-07T13:06:13.736Z,7.96
2023-04-07T13:08:44.232Z,7.92
2023-04-07T13:11:13.023Z,7.89
2023-04-07T13:13:40.473Z,7.83
2023-04-07T13:16:08.169Z,7.76
2023-04-07T13:18:36.736Z,7.69
2023-04-07T13:23:42.754Z,7.67
2023-04-07T13:26:10.837Z,7.73
2023-04-07T13:28:38.160Z,7.84
2023-04-07T13:31:08.679Z,7.95
2023-04-07T13:33:41.324Z,8.12
2023-04-07T13:36:08.423Z,8.21
2023-04-07T13:38:36.836Z,8.27
2023-04-07T13:41:04.580Z,8.32
2023-04-07T13:43:32.360Z,8.31
2023-04-07T13:45:59.468Z,8.34
2023-04-07T13:48:27.086Z,8.35
2023-04-07T13:50:54.108Z,8.41
2023-04-07T13:53:21.842Z,8.42
2023-04-07T13:55:49.020Z,8.47
2023-04-07T13:58:17.541Z,8.49
2023-04-07T14:00:44.531Z,8.49
2023-04-07T14:03:16.971Z,8.48
2023-04-07T14:05:45.165Z,8.45
2023-04-07T14:08:28.020Z,8.43
2023-04-07T14:10:55.839Z,8.43
2023-04-07T14:13:23.223Z,8.47
2023-04-07T14:15:50.863Z,8.50
2023-04-07T14:18:17.883Z,8.56
2023-04-07T14:20:45.551Z,8.60
2023-04-07T14:23:15.059Z,8.67
2023-04-07T14:25:44.237Z,8.69
2023-04-07T14:28:14.206Z,8.79
2023-04-07T14:30:41.627Z,8.85
2023-04-07T14:33:08.768Z,8.85
2023-04-07T14:35:39.421Z,8.87
2023-04-07T14:38:06.568Z,8.89
2023-04-07T14:40:34.020Z,8.94
2023-04-07T14:45:32.906Z,8.93
2023-04-07T14:48:00.248Z,8.86
2023-04-07T14:50:28.163Z,8.78
2023-04-07T14:53:00.370Z,8.72
2023-04-07T14:58:09.124Z,8.69
2023-04-07T15:00:36.565Z,8.69
2023-04-07T15:03:03.879Z,8.67
2023-04-07T15:05:31.652Z,8.66
2023-04-07T15:07:58.869Z,8.67
2023-04-07T15:10:26.244Z,8.66
2023-04-07T15:12:53.310Z,8.64
2023-04-07T15:15:21.049Z,8.63
2023-04-07T15:17:48.073Z,8.64
2023-04-07T15:20:15.820Z,8.65
2023-04-07T15:22:44.266Z,8.64
2023-04-07T15:25:11.774Z,8.65
2023-04-07T15:27:38.977Z,8.67
2023-04-07T15:30:07.267Z,8.70
2023-04-07T15:32:38.620Z,8.69
2023-04-07T15:35:08.458Z,8.68
2023-04-07T15:37:41.276Z,8.67
2023-04-07T15:42:52.043Z,8.64
2023-04-07T15:45:37.276Z,8.59
2023-04-07T15:48:09.222Z,8.56
2023-04-07T15:50:37.341Z,8.49
2023-04-07T15:55:50.116Z,8.42
2023-04-07T15:58:24.019Z,8.38
2023-04-07T16:00:52.439Z,8.32
2023-04-07T16:03:29.715Z,8.26
2023-04-07T16:09:04.667Z,8.16
2023-04-07T16:11:44.288Z,8.10
2023-04-07T16:14:12.029Z,8.07
2023-04-07T16:16:41.955Z,8.02
2023-04-07T16:19:14.662Z,7.96
2023-04-07T16:21:43.503Z,7.90
2023-04-07T16:24:11.042Z,7.88
2023-04-07T16:27:04.295Z,7.82
2023-04-07T16:29:34.923Z,7.80
2023-04-07T16:32:04.437Z,7.77
2023-04-07T16:34:32.093Z,7.77
2023-04-07T16:36:59.882Z,7.75
2023-04-07T16:42:16.863Z,7.73
2023-04-07T16:44:44.085Z,7.69
2023-04-07T16:47:11.636Z,7.70
2023-04-07T16:50:10.510Z,7.72
2023-04-07T16:55:38.099Z,7.68
2023-04-07T16:58:20.588Z,7.66
2023-04-07T17:00:52.706Z,7.64
2023-04-07T17:03:20.078Z,7.67
2023-04-07T17:05:49.028Z,7.67
2023-04-07T17:08:16.303Z,7.65
2023-04-07T17:13:59.334Z,7.64
2023-04-07T17:16:26.726Z,7.67
2023-04-07T17:18:57.629Z,7.67
2023-04-07T17:21:26.281Z,7.65
2023-04-07T17:23:53.590Z,7.64
2023-04-07T17:26:28.012Z,7.63
2023-04-07T17:28:57.371Z,7.58
2023-04-07T17:31:25.443Z,7.55
2023-04-07T17:33:54.027Z,7.50
2023-04-07T17:36:23.727Z,7.45
2023-04-07T17:38:58.122Z,7.44
2023-04-07T17:41:29.967Z,7.41
2023-04-07T17:43:57.390Z,7.42
2023-04-07T17:46:25.741Z,7.42
2023-04-07T17:48:52.906Z,7.39
2023-04-07T17:51:20.402Z,7.37
2023-04-07T17:53:48.002Z,7.36
2023-04-07T17:56:16.254Z,7.35
2023-04-07T17:58:44.908Z,7.33
2023-04-07T18:01:14.206Z,7.33
2023-04-07T18:03:41.437Z,7.33
2023-04-07T18:06:10.078Z,7.31
2023-04-07T18:08:40.353Z,7.28
2023-04-07T18:11:07.743Z,7.25
2023-04-07T18:13:35.429Z,7.27
2023-04-07T18:16:02.909Z,7.22
2023-04-07T18:18:30.159Z,7.19
2023-04-07T18:20:58.162Z,7.17
2023-04-07T18:23:25.518Z,7.15
2023-04-07T18:25:53.231Z,7.12
2023-04-07T18:28:21.059Z,7.12
2023-04-07T18:30:48.823Z,7.12
2023-04-07T18:33:16.433Z,7.12
2023-04-07T18:35:44.299Z,7.08
2023-04-07T18:38:11.544Z,7.08
2023-04-07T18:40:38.894Z,7.07
2023-04-07T18:43:15.690Z,7.06
2023-04-07T18:45:51.433Z,7.05
2023-04-07T18:48:19.527Z,7.03
2023-04-07T18:50:52.304Z,7.01
2023-04-07T18:53:24.367Z,6.94
2023-04-07T18:55:53.329Z,6.94
2023-04-07T18:58:21.921Z,6.94
2023-04-07T19:00:50.246Z,6.93
2023-04-07T19:03:17.787Z,6.89
2023-04-07T19:05:47.824Z,6.88
2023-04-07T19:08:16.135Z,6.87
2023-04-07T19:10:44.218Z,6.86
2023-04-07T19:13:15.607Z,6.87
2023-04-07T19:15:46.627Z,6.88
2023-04-07T19:18:13.806Z,6.88
2023-04-07T19:20:47.262Z,6.92
2023-04-07T19:23:14.679Z,6.93
2023-04-07T19:25:45.986Z,6.92
2023-04-07T19:28:13.497Z,6.96
2023-04-07T19:30:41.000Z,6.99
2023-04-07T19:36:01.652Z,7.05
2023-04-07T19:38:40.735Z,7.06
2023-04-07T19:41:11.833Z,7.09
2023-04-07T19:43:39.028Z,7.11
2023-04-07T19:46:07.200Z,7.12
2023-04-07T19:48:34.526Z,7.09
2023-04-07T19:51:02.254Z,7.06
2023-04-07T19:53:29.798Z,7.03
2023-04-07T19:56:05.825Z,7.02
2023-04-07T19:58:34.570Z,7.02
2023-04-07T20:01:07.556Z,7.01
2023-04-07T20:03:36.388Z,7.01
2023-04-07T20:06:04.671Z,7.01
2023-04-07T20:08:35.710Z,7.01
2023-04-07T20:11:03.192Z,7.01
2023-04-07T20:13:31.965Z,7.03
2023-04-07T20:16:01.832Z,7.04
2023-04-07T20:18:29.617Z,7.04
2023-04-07T20:21:09.111Z,7.04
2023-04-07T20:23:40.646Z,7.06
2023-04-07T20:26:12.637Z,7.08
2023-04-07T20:28:39.993Z,7.08
2023-04-07T20:31:07.747Z,7.05
2023-04-07T20:33:34.849Z,7.03
2023-04-07T20:36:02.182Z,7.04
2023-04-07T20:38:29.385Z,7.04
2023-04-07T20:40:56.923Z,7.05
2023-04-07T20:43:24.909Z,7.06
2023-04-07T20:45:53.717Z,7.06
2023-04-07T20:48:24.254Z,7.05
2023-04-07T20:50:52.256Z,7.05
2023-04-07T20:53:20.301Z,7.06
2023-04-07T20:55:47.988Z,7.06
2023-04-07T20:58:15.193Z,7.07
2023-04-07T21:00:42.503Z,7.06
2023-04-07T21:03:09.831Z,7.05
2023-04-07T21:05:38.754Z,7.05
2023-04-07T21:08:06.709Z,7.03
2023-04-07T21:10:34.065Z,6.99
2023-04-07T21:13:01.450Z,6.92
2023-04-07T21:15:28.839Z,6.88
2023-04-07T21:17:57.340Z,6.82
2023-04-07T21:20:24.714Z,6.77
2023-04-07T21:22:51.677Z,6.72
2023-04-07T21:25:21.524Z,6.67
2023-04-07T21:27:49.086Z,6.62
2023-04-07T21:30:18.420Z,6.55
2023-04-07T21:32:46.174Z,6.51
2023-04-07T21:35:14.129Z,6.45
2023-04-07T21:37:42.473Z,6.41
2023-04-07T21:40:11.512Z,6.34
2023-04-07T21:42:39.042Z,6.32
2023-04-07T21:45:07.888Z,6.27
2023-04-07T21:47:37.465Z,6.25
2023-04-07T21:50:05.839Z,6.20
2023-04-07T21:52:36.497Z,6.18
2023-04-07T21:55:08.067Z,6.15
2023-04-07T21:57:35.396Z,6.15
2023-04-07T22:00:03.121Z,6.12
2023-04-07T22:02:30.732Z,6.12
2023-04-07T22:04:58.811Z,6.13
2023-04-07T22:07:25.956Z,6.14
2023-04-07T22:09:53.342Z,6.16
2023-04-07T22:12:20.352Z,6.12
2023-04-07T22:14:47.709Z,6.12
2023-04-07T22:17:14.866Z,6.08
2023-04-07T22:19:42.598Z,6.07
2023-04-07T22:22:09.851Z,6.03
2023-04-07T22:24:37.321Z,6.02
2023-04-07T22:27:04.624Z,5.96
2023-04-07T22:29:32.063Z,5.91
2023-04-07T22:31:59.024Z,5.86
2023-04-07T22:34:26.604Z,5.83
2023-04-07T22:36:53.543Z,5.77
2023-04-07T22:39:20.882Z,5.75
2023-04-07T22:41:47.962Z,5.72
2023-04-07T22:44:15.400Z,5.69
2023-04-07T22:46:42.616Z,5.68
2023-04-07T22:49:10.008Z,5.67
2023-04-07T22:51:37.130Z,5.66
2023-04-07T22:54:04.605Z,5.65
2023-04-07T22:56:31.792Z,5.64
2023-04-07T22:59:05.660Z,5.64
2023-04-07T23:01:33.594Z,5.64
2023-04-07T23:04:01.104Z,5.64
2023-04-07T23:06:28.710Z,5.64
2023-04-07T23:08:56.604Z,5.63
2023-04-07T23:11:23.951Z,5.64
2023-04-07T23:13:51.755Z,5.63
2023-04-07T23:16:18.847Z,5.63
2023-04-07T23:18:46.324Z,5.61
2023-04-07T23:21:13.594Z,5.57
2023-04-07T23:23:40.888Z,5.48
2023-04-07T23:26:08.193Z,5.45
2023-04-07T23:28:35.592Z,5.48
2023-04-07T23:31:02.783Z,5.50
2023-04-07T23:33:31.834Z,5.51
2023-04-07T23:35:59.070Z,5.53
2023-04-07T23:38:26.697Z,5.51
2023-04-07T23:40:53.735Z,5.49
2023-04-07T23:43:21.088Z,5.44
2023-04-07T23:45:48.239Z,5.42
2023-04-07T23:48:28.360Z,5.45
2023-04-07T23:50:56.090Z,5.48
2023-04-07T23:53:23.423Z,5.47
2023-04-07T23:55:50.691Z,5.46
2023-04-07T23:58:17.962Z,5.42
